sensor_id;sensor_type;location;lat;lon;timestamp;pressure;altitude;pressure_sealevel;temperature;humidity
19286;BME280;9776;50.798;6.430;2022-08-19T00:00:48;99981.00;;;20.04;61.79
19286;BME280;9776;50.798;6.430;2022-08-19T00:03:15;99979.97;;;20.05;61.59
19286;BME280;9776;50.798;6.430;2022-08-19T00:05:42;99981.44;;;20.01;61.82
19286;BME280;9776;50.798;6.430;2022-08-19T00:08:10;99987.22;;;19.98;61.86
19286;BME280;9776;50.798;6.430;2022-08-19T00:10:37;99983.97;;;19.96;62.05
19286;BME280;9776;50.798;6.430;2022-08-19T00:13:03;99984.38;;;19.93;62.09
19286;BME280;9776;50.798;6.430;2022-08-19T00:15:30;99984.38;;;19.93;62.31
19286;BME280;9776;50.798;6.430;2022-08-19T00:17:57;99984.97;;;19.95;62.05
19286;BME280;9776;50.798;6.430;2022-08-19T00:20:24;99979.03;;;19.93;62.11
19286;BME280;9776;50.798;6.430;2022-08-19T00:22:51;99983.78;;;19.91;62.22
19286;BME280;9776;50.798;6.430;2022-08-19T00:25:19;99987.50;;;19.90;62.43
19286;BME280;9776;50.798;6.430;2022-08-19T00:27:45;99987.78;;;19.82;62.64
19286;BME280;9776;50.798;6.430;2022-08-19T00:30:13;99992.75;;;19.78;62.87
19286;BME280;9776;50.798;6.430;2022-08-19T00:32:40;99997.69;;;19.75;63.01
19286;BME280;9776;50.798;6.430;2022-08-19T00:35:07;99983.72;;;19.73;63.01
19286;BME280;9776;50.798;6.430;2022-08-19T00:37:35;99979.00;;;19.68;63.10
19286;BME280;9776;50.798;6.430;2022-08-19T00:40:05;99975.56;;;19.61;63.46
19286;BME280;9776;50.798;6.430;2022-08-19T00:42:33;99977.25;;;19.56;63.54
19286;BME280;9776;50.798;6.430;2022-08-19T00:45:00;99974.84;;;19.48;63.87
19286;BME280;9776;50.798;6.430;2022-08-19T00:47:27;99971.09;;;19.49;63.89
19286;BME280;9776;50.798;6.430;2022-08-19T00:49:57;99966.81;;;19.48;63.96
19286;BME280;9776;50.798;6.430;2022-08-19T00:52:27;99971.53;;;19.46;63.99
19286;BME280;9776;50.798;6.430;2022-08-19T00:54:56;99974.44;;;19.38;64.38
19286;BME280;9776;50.798;6.430;2022-08-19T00:57:27;99976.78;;;19.27;64.65
19286;BME280;9776;50.798;6.430;2022-08-19T00:59:58;99969.97;;;19.25;64.71
19286;BME280;9776;50.798;6.430;2022-08-19T01:02:26;99974.94;;;19.21;64.62
19286;BME280;9776;50.798;6.430;2022-08-19T01:04:54;99980.50;;;19.20;64.56
19286;BME280;9776;50.798;6.430;2022-08-19T01:07:21;99974.97;;;19.15;64.99
19286;BME280;9776;50.798;6.430;2022-08-19T01:09:48;99973.53;;;19.12;65.07
19286;BME280;9776;50.798;6.430;2022-08-19T01:12:15;99973.75;;;19.11;65.11
19286;BME280;9776;50.798;6.430;2022-08-19T01:14:43;99971.28;;;19.09;65.36
19286;BME280;9776;50.798;6.430;2022-08-19T01:17:12;99975.81;;;19.09;65.28
19286;BME280;9776;50.798;6.430;2022-08-19T01:19:42;99970.06;;;19.05;65.42
19286;BME280;9776;50.798;6.430;2022-08-19T01:22:13;99971.50;;;19.08;65.33
19286;BME280;9776;50.798;6.430;2022-08-19T01:24:42;99968.41;;;19.11;65.56
19286;BME280;9776;50.798;6.430;2022-08-19T01:27:09;99968.41;;;19.11;65.35
19286;BME280;9776;50.798;6.430;2022-08-19T01:29:38;99966.72;;;19.16;65.17
19286;BME280;9776;50.798;6.430;2022-08-19T01:32:05;99963.03;;;19.17;65.26
19286;BME280;9776;50.798;6.430;2022-08-19T01:34:32;99966.09;;;19.21;65.21
19286;BME280;9776;50.798;6.430;2022-08-19T01:37:00;99971.88;;;19.18;65.01
19286;BME280;9776;50.798;6.430;2022-08-19T01:39:27;99970.03;;;19.18;65.31
19286;BME280;9776;50.798;6.430;2022-08-19T01:41:55;99964.44;;;19.20;65.19
19286;BME280;9776;50.798;6.430;2022-08-19T01:44:22;99966.28;;;19.19;65.22
19286;BME280;9776;50.798;6.430;2022-08-19T01:46:51;99956.00;;;19.16;65.44
19286;BME280;9776;50.798;6.430;2022-08-19T01:49:20;99957.66;;;19.17;65.47
19286;BME280;9776;50.798;6.430;2022-08-19T01:51:49;99956.00;;;19.16;65.30
19286;BME280;9776;50.798;6.430;2022-08-19T01:54:17;99950.63;;;19.23;65.35
19286;BME280;9776;50.798;6.430;2022-08-19T01:56:44;99952.06;;;19.25;65.43
19286;BME280;9776;50.798;6.430;2022-08-19T01:59:16;99948.97;;;19.28;65.40
19286;BME280;9776;50.798;6.430;2022-08-19T02:01:43;99947.34;;;19.27;65.66
19286;BME280;9776;50.798;6.430;2022-08-19T02:04:10;99953.06;;;19.31;65.57
19286;BME280;9776;50.798;6.430;2022-08-19T02:06:37;99957.78;;;19.36;65.54
19286;BME280;9776;50.798;6.430;2022-08-19T02:09:07;99957.78;;;19.42;65.36
19286;BME280;9776;50.798;6.430;2022-08-19T02:11:36;99957.13;;;19.47;65.69
19286;BME280;9776;50.798;6.430;2022-08-19T02:14:05;99942.28;;;19.51;65.77
19286;BME280;9776;50.798;6.430;2022-08-19T02:16:34;99945.97;;;19.50;65.76
19286;BME280;9776;50.798;6.430;2022-08-19T02:19:02;99938.16;;;19.48;65.97
19286;BME280;9776;50.798;6.430;2022-08-19T02:21:29;99938.97;;;19.49;66.05
19286;BME280;9776;50.798;6.430;2022-08-19T02:23:56;99943.91;;;19.52;66.03
19286;BME280;9776;50.798;6.430;2022-08-19T02:26:22;99942.88;;;19.53;65.98
19286;BME280;9776;50.798;6.430;2022-08-19T02:28:52;99945.56;;;19.53;66.39
19286;BME280;9776;50.798;6.430;2022-08-19T02:31:20;99950.09;;;19.52;66.35
19286;BME280;9776;50.798;6.430;2022-08-19T02:33:49;99951.72;;;19.53;66.69
19286;BME280;9776;50.798;6.430;2022-08-19T02:36:17;99950.09;;;19.52;66.95
19286;BME280;9776;50.798;6.430;2022-08-19T02:38:45;99948.22;;;19.53;66.98
19286;BME280;9776;50.798;6.430;2022-08-19T02:41:13;99952.09;;;19.57;67.17
19286;BME280;9776;50.798;6.430;2022-08-19T02:43:40;99960.75;;;19.59;67.14
19286;BME280;9776;50.798;6.430;2022-08-19T02:46:13;99964.03;;;19.61;67.29
19286;BME280;9776;50.798;6.430;2022-08-19T02:48:40;99968.94;;;19.64;67.10
19286;BME280;9776;50.798;6.430;2022-08-19T02:51:08;99967.66;;;19.73;66.83
19286;BME280;9776;50.798;6.430;2022-08-19T02:53:34;99958.53;;;19.80;66.65
19286;BME280;9776;50.798;6.430;2022-08-19T02:56:05;99959.59;;;19.98;66.29
19286;BME280;9776;50.798;6.430;2022-08-19T02:58:32;99961.25;;;19.99;66.38
19286;BME280;9776;50.798;6.430;2022-08-19T03:00:59;99972.38;;;20.02;66.41
19286;BME280;9776;50.798;6.430;2022-08-19T03:03:26;99961.41;;;20.04;66.21
19286;BME280;9776;50.798;6.430;2022-08-19T03:06:04;99959.19;;;20.01;66.47
19286;BME280;9776;50.798;6.430;2022-08-19T03:08:32;99963.06;;;20.05;66.51
19286;BME280;9776;50.798;6.430;2022-08-19T03:10:59;99954.91;;;20.18;65.89
19286;BME280;9776;50.798;6.430;2022-08-19T03:13:25;99962.84;;;20.31;65.74
19286;BME280;9776;50.798;6.430;2022-08-19T03:15:53;99966.97;;;20.52;64.93
19286;BME280;9776;50.798;6.430;2022-08-19T03:18:20;99965.50;;;20.74;64.18
19286;BME280;9776;50.798;6.430;2022-08-19T03:20:48;99964.41;;;20.93;63.59
19286;BME280;9776;50.798;6.430;2022-08-19T03:23:16;99970.09;;;21.03;63.26
19286;BME280;9776;50.798;6.430;2022-08-19T03:25:46;99965.72;;;21.09;63.11
19286;BME280;9776;50.798;6.430;2022-08-19T03:28:14;99969.41;;;20.89;63.78
19286;BME280;9776;50.798;6.430;2022-08-19T03:30:42;99972.56;;;20.68;64.38
19286;BME280;9776;50.798;6.430;2022-08-19T03:33:10;99966.81;;;20.47;65.11
19286;BME280;9776;50.798;6.430;2022-08-19T03:35:37;99967.78;;;20.34;65.64
19286;BME280;9776;50.798;6.430;2022-08-19T03:38:04;99971.94;;;20.23;66.02
19286;BME280;9776;50.798;6.430;2022-08-19T03:40:31;99974.31;;;20.13;66.18
19286;BME280;9776;50.798;6.430;2022-08-19T03:43:01;99974.16;;;20.08;66.27
19286;BME280;9776;50.798;6.430;2022-08-19T03:45:28;99973.41;;;20.01;66.55
19286;BME280;9776;50.798;6.430;2022-08-19T03:47:55;99973.00;;;19.98;66.81
19286;BME280;9776;50.798;6.430;2022-08-19T03:50:22;99974.06;;;19.97;66.90
19286;BME280;9776;50.798;6.430;2022-08-19T03:52:50;99969.94;;;19.94;67.04
19286;BME280;9776;50.798;6.430;2022-08-19T03:55:17;99967.94;;;19.90;67.32
19286;BME280;9776;50.798;6.430;2022-08-19T03:57:44;99980.56;;;19.83;67.32
19286;BME280;9776;50.798;6.430;2022-08-19T04:00:15;99979.13;;;19.80;67.62
19286;BME280;9776;50.798;6.430;2022-08-19T04:02:42;99979.38;;;19.72;67.94
19286;BME280;9776;50.798;6.430;2022-08-19T04:05:09;99982.50;;;19.69;68.14
19286;BME280;9776;50.798;6.430;2022-08-19T04:07:36;99990.38;;;19.64;68.21
19286;BME280;9776;50.798;6.430;2022-08-19T04:10:03;99991.81;;;19.60;68.39
19286;BME280;9776;50.798;6.430;2022-08-19T04:12:31;99984.88;;;19.52;68.72
19286;BME280;9776;50.798;6.430;2022-08-19T04:14:57;99983.66;;;19.48;68.88
19286;BME280;9776;50.798;6.430;2022-08-19T04:17:25;99984.47;;;19.49;69.05
19286;BME280;9776;50.798;6.430;2022-08-19T04:19:52;99985.53;;;19.48;69.15
19286;BME280;9776;50.798;6.430;2022-08-19T04:22:19;99983.06;;;19.46;68.89
19286;BME280;9776;50.798;6.430;2022-08-19T04:24:45;99990.91;;;19.48;69.20
19286;BME280;9776;50.798;6.430;2022-08-19T04:27:12;99987.59;;;19.46;69.25
19286;BME280;9776;50.798;6.430;2022-08-19T04:29:39;99992.94;;;19.46;69.26
19286;BME280;9776;50.798;6.430;2022-08-19T04:32:06;99995.63;;;19.46;69.44
19286;BME280;9776;50.798;6.430;2022-08-19T04:34:34;99992.94;;;19.46;69.48
19286;BME280;9776;50.798;6.430;2022-08-19T04:37:05;99994.00;;;19.45;69.63
19286;BME280;9776;50.798;6.430;2022-08-19T04:39:33;100007.59;;;19.43;69.84
19286;BME280;9776;50.798;6.430;2022-08-19T04:42:17;100016.84;;;19.78;68.93
19286;BME280;9776;50.798;6.430;2022-08-19T04:45:02;100008.94;;;19.90;68.47
19286;BME280;9776;50.798;6.430;2022-08-19T04:47:29;100009.56;;;19.86;68.62
19286;BME280;9776;50.798;6.430;2022-08-19T04:49:57;100021.97;;;19.80;68.56
19286;BME280;9776;50.798;6.430;2022-08-19T04:52:24;100016.25;;;19.76;68.92
19286;BME280;9776;50.798;6.430;2022-08-19T04:54:51;100031.31;;;19.71;69.21
19286;BME280;9776;50.798;6.430;2022-08-19T04:57:17;100031.13;;;19.66;69.40
19286;BME280;9776;50.798;6.430;2022-08-19T04:59:44;100032.38;;;19.63;69.46
19286;BME280;9776;50.798;6.430;2022-08-19T05:02:11;100037.97;;;19.62;69.61
19286;BME280;9776;50.798;6.430;2022-08-19T05:04:37;100039.22;;;19.59;69.48
19286;BME280;9776;50.798;6.430;2022-08-19T05:07:06;100039.22;;;19.59;69.47
19286;BME280;9776;50.798;6.430;2022-08-19T05:09:34;100046.03;;;19.55;69.47
19286;BME280;9776;50.798;6.430;2022-08-19T05:12:00;100049.97;;;19.53;69.78
19286;BME280;9776;50.798;6.430;2022-08-19T05:14:27;100052.47;;;19.48;69.90
19286;BME280;9776;50.798;6.430;2022-08-19T05:16:54;100054.75;;;19.44;70.03
19286;BME280;9776;50.798;6.430;2022-08-19T05:19:21;100066.28;;;19.45;69.97
19286;BME280;9776;50.798;6.430;2022-08-19T05:22:06;100072.41;;;19.45;69.83
19286;BME280;9776;50.798;6.430;2022-08-19T05:24:50;100073.25;;;19.46;70.00
19286;BME280;9776;50.798;6.430;2022-08-19T05:27:17;100064.63;;;19.44;69.85
19286;BME280;9776;50.798;6.430;2022-08-19T05:29:43;100072.47;;;19.39;70.16
19286;BME280;9776;50.798;6.430;2022-08-19T05:32:10;100069.56;;;19.34;70.62
19286;BME280;9776;50.798;6.430;2022-08-19T05:34:37;100070.19;;;19.42;70.53
19286;BME280;9776;50.798;6.430;2022-08-19T05:37:06;100060.06;;;19.51;69.99
19286;BME280;9776;50.798;6.430;2022-08-19T05:39:36;100062.91;;;19.56;70.26
19286;BME280;9776;50.798;6.430;2022-08-19T05:42:05;100064.69;;;19.68;69.89
19286;BME280;9776;50.798;6.430;2022-08-19T05:44:34;100065.69;;;19.74;69.86
19286;BME280;9776;50.798;6.430;2022-08-19T05:47:03;100063.97;;;19.86;69.74
19286;BME280;9776;50.798;6.430;2022-08-19T05:49:32;100074.81;;;19.98;69.24
19286;BME280;9776;50.798;6.430;2022-08-19T05:52:01;100068.81;;;20.02;69.20
19286;BME280;9776;50.798;6.430;2022-08-19T05:54:30;100060.06;;;20.13;69.26
19286;BME280;9776;50.798;6.430;2022-08-19T05:56:57;100054.03;;;20.18;69.05
19286;BME280;9776;50.798;6.430;2022-08-19T05:59:23;100054.88;;;20.18;69.22
19286;BME280;9776;50.798;6.430;2022-08-19T06:01:52;100057.72;;;20.23;69.29
19286;BME280;9776;50.798;6.430;2022-08-19T06:04:23;100055.69;;;20.25;69.18
19286;BME280;9776;50.798;6.430;2022-08-19T06:06:52;100058.28;;;20.32;69.10
19286;BME280;9776;50.798;6.430;2022-08-19T06:09:20;100065.69;;;20.36;68.72
19286;BME280;9776;50.798;6.430;2022-08-19T06:11:51;100067.25;;;20.44;68.56
19286;BME280;9776;50.798;6.430;2022-08-19T06:14:29;100064.00;;;20.42;68.64
19286;BME280;9776;50.798;6.430;2022-08-19T06:16:56;100055.72;;;20.44;68.48
19286;BME280;9776;50.798;6.430;2022-08-19T06:19:28;100065.66;;;20.43;68.78
19286;BME280;9776;50.798;6.430;2022-08-19T06:21:57;100057.38;;;20.45;68.88
19286;BME280;9776;50.798;6.430;2022-08-19T06:24:26;100057.75;;;20.48;68.74
19286;BME280;9776;50.798;6.430;2022-08-19T06:26:57;100056.06;;;20.54;68.53
19286;BME280;9776;50.798;6.430;2022-08-19T06:29:25;100059.72;;;20.59;68.35
19286;BME280;9776;50.798;6.430;2022-08-19T06:31:54;100067.25;;;20.69;68.24
19286;BME280;9776;50.798;6.430;2022-08-19T06:34:21;100069.50;;;20.72;67.97
19286;BME280;9776;50.798;6.430;2022-08-19T06:36:50;100066.81;;;20.72;67.77
19286;BME280;9776;50.798;6.430;2022-08-19T06:39:20;100070.47;;;20.77;67.92
19286;BME280;9776;50.798;6.430;2022-08-19T06:41:50;100072.09;;;20.78;67.91
19286;BME280;9776;50.798;6.430;2022-08-19T06:44:19;100071.28;;;20.78;67.86
19286;BME280;9776;50.798;6.430;2022-08-19T06:46:47;100073.06;;;20.84;68.06
19286;BME280;9776;50.798;6.430;2022-08-19T06:49:14;100074.28;;;21.06;67.24
19286;BME280;9776;50.798;6.430;2022-08-19T06:51:41;100074.69;;;21.28;66.69
19286;BME280;9776;50.798;6.430;2022-08-19T06:54:09;100081.53;;;21.42;66.31
19286;BME280;9776;50.798;6.430;2022-08-19T06:56:36;100087.19;;;21.52;66.24
19286;BME280;9776;50.798;6.430;2022-08-19T06:59:05;100081.00;;;21.52;66.09
19286;BME280;9776;50.798;6.430;2022-08-19T07:01:36;100088.91;;;21.46;65.95
19286;BME280;9776;50.798;6.430;2022-08-19T07:04:04;100084.38;;;21.47;66.00
19286;BME280;9776;50.798;6.430;2022-08-19T07:06:31;100087.41;;;21.50;65.78
19286;BME280;9776;50.798;6.430;2022-08-19T07:08:58;100086.56;;;21.68;65.25
19286;BME280;9776;50.798;6.430;2022-08-19T07:11:25;100089.03;;;21.99;64.33
19286;BME280;9776;50.798;6.430;2022-08-19T07:13:52;100095.78;;;22.32;63.35
19286;BME280;9776;50.798;6.430;2022-08-19T07:16:21;100094.53;;;22.57;62.57
19286;BME280;9776;50.798;6.430;2022-08-19T07:18:49;100090.47;;;22.90;61.25
19286;BME280;9776;50.798;6.430;2022-08-19T07:21:18;100096.81;;;23.47;59.74
19286;BME280;9776;50.798;6.430;2022-08-19T07:23:45;100089.63;;;24.20;57.58
19286;BME280;9776;50.798;6.430;2022-08-19T07:26:17;100086.72;;;24.94;55.41
19286;BME280;9776;50.798;6.430;2022-08-19T07:28:44;100094.94;;;25.64;53.45
19286;BME280;9776;50.798;6.430;2022-08-19T07:31:12;100102.53;;;26.15;51.59
19286;BME280;9776;50.798;6.430;2022-08-19T07:33:40;100102.06;;;26.55;50.18
19286;BME280;9776;50.798;6.430;2022-08-19T07:36:11;100101.28;;;26.96;48.43
19286;BME280;9776;50.798;6.430;2022-08-19T07:38:40;100103.63;;;27.30;47.53
19286;BME280;9776;50.798;6.430;2022-08-19T07:41:09;100100.53;;;27.58;46.11
19286;BME280;9776;50.798;6.430;2022-08-19T07:43:37;100101.69;;;27.97;45.04
19286;BME280;9776;50.798;6.430;2022-08-19T07:46:05;100112.63;;;28.38;44.18
19286;BME280;9776;50.798;6.430;2022-08-19T07:48:32;100111.53;;;28.69;42.90
19286;BME280;9776;50.798;6.430;2022-08-19T07:51:02;100115.81;;;29.20;41.26
19286;BME280;9776;50.798;6.430;2022-08-19T07:53:32;100116.25;;;29.48;40.63
19286;BME280;9776;50.798;6.430;2022-08-19T07:55:59;100113.97;;;29.75;40.18
19286;BME280;9776;50.798;6.430;2022-08-19T07:58:28;100118.28;;;29.76;39.66
19286;BME280;9776;50.798;6.430;2022-08-19T08:00:55;100121.44;;;29.44;40.20
19286;BME280;9776;50.798;6.430;2022-08-19T08:03:22;100115.81;;;29.25;40.29
19286;BME280;9776;50.798;6.430;2022-08-19T08:06:09;100115.78;;;29.31;39.88
19286;BME280;9776;50.798;6.430;2022-08-19T08:08:55;100116.78;;;29.55;39.32
19286;BME280;9776;50.798;6.430;2022-08-19T08:11:38;100116.59;;;29.95;38.72
19286;BME280;9776;50.798;6.430;2022-08-19T08:14:05;100117.13;;;30.36;38.27
19286;BME280;9776;50.798;6.430;2022-08-19T08:16:33;100110.16;;;30.59;37.72
19286;BME280;9776;50.798;6.430;2022-08-19T08:19:00;100115.50;;;30.35;38.25
19286;BME280;9776;50.798;6.430;2022-08-19T08:21:27;100122.81;;;30.40;38.65
19286;BME280;9776;50.798;6.430;2022-08-19T08:23:55;100109.41;;;31.06;37.50
19286;BME280;9776;50.798;6.430;2022-08-19T08:26:22;100120.09;;;31.50;36.77
19286;BME280;9776;50.798;6.430;2022-08-19T08:28:50;100121.59;;;31.61;36.53
19286;BME280;9776;50.798;6.430;2022-08-19T08:31:17;100112.66;;;31.55;36.72
19286;BME280;9776;50.798;6.430;2022-08-19T08:33:45;100127.72;;;30.71;37.79
19286;BME280;9776;50.798;6.430;2022-08-19T08:36:13;100132.13;;;29.95;39.04
19286;BME280;9776;50.798;6.430;2022-08-19T08:38:41;100126.06;;;29.49;39.63
19286;BME280;9776;50.798;6.430;2022-08-19T08:41:18;100133.13;;;29.45;39.90
19286;BME280;9776;50.798;6.430;2022-08-19T08:43:50;100127.00;;;30.22;38.84
19286;BME280;9776;50.798;6.430;2022-08-19T08:46:22;100135.41;;;30.98;37.60
19286;BME280;9776;50.798;6.430;2022-08-19T08:48:55;100128.72;;;31.80;36.20
19286;BME280;9776;50.798;6.430;2022-08-19T08:51:27;100132.56;;;32.17;35.69
19286;BME280;9776;50.798;6.430;2022-08-19T08:53:56;100117.19;;;32.39;35.29
19286;BME280;9776;50.798;6.430;2022-08-19T08:56:24;100120.66;;;32.77;34.72
19286;BME280;9776;50.798;6.430;2022-08-19T08:58:56;100120.56;;;32.69;34.82
19286;BME280;9776;50.798;6.430;2022-08-19T09:01:25;100122.25;;;32.65;34.87
19286;BME280;9776;50.798;6.430;2022-08-19T09:03:53;100120.59;;;32.31;35.43
19286;BME280;9776;50.798;6.430;2022-08-19T09:06:36;100124.97;;;32.65;34.67
19286;BME280;9776;50.798;6.430;2022-08-19T09:09:12;100117.78;;;33.01;34.13
19286;BME280;9776;50.798;6.430;2022-08-19T09:11:50;100113.66;;;33.17;33.99
19286;BME280;9776;50.798;6.430;2022-08-19T09:14:35;100104.63;;;33.30;33.77
19286;BME280;9776;50.798;6.430;2022-08-19T09:17:07;100103.59;;;34.03;32.71
19286;BME280;9776;50.798;6.430;2022-08-19T09:19:34;100109.88;;;34.61;31.97
19286;BME280;9776;50.798;6.430;2022-08-19T09:22:01;100112.88;;;35.13;31.09
19286;BME280;9776;50.798;6.430;2022-08-19T09:24:28;100110.09;;;35.44;30.59
19286;BME280;9776;50.798;6.430;2022-08-19T09:26:56;100107.41;;;35.61;29.99
19286;BME280;9776;50.798;6.430;2022-08-19T09:29:23;100104.16;;;35.59;30.19
19286;BME280;9776;50.798;6.430;2022-08-19T09:31:49;100109.50;;;35.16;30.73
19286;BME280;9776;50.798;6.430;2022-08-19T09:34:16;100115.84;;;34.63;31.24
19286;BME280;9776;50.798;6.430;2022-08-19T09:36:45;100118.13;;;34.92;30.92
19286;BME280;9776;50.798;6.430;2022-08-19T09:39:11;100107.91;;;35.71;29.67
19286;BME280;9776;50.798;6.430;2022-08-19T09:41:38;100103.53;;;35.14;30.37
19286;BME280;9776;50.798;6.430;2022-08-19T09:44:06;100113.47;;;34.48;31.21
19286;BME280;9776;50.798;6.430;2022-08-19T09:46:33;100101.72;;;33.90;31.88
19286;BME280;9776;50.798;6.430;2022-08-19T09:49:01;100106.22;;;33.04;33.09
19286;BME280;9776;50.798;6.430;2022-08-19T09:51:29;100107.06;;;32.40;34.09
19286;BME280;9776;50.798;6.430;2022-08-19T09:53:59;100112.03;;;32.70;33.71
19286;BME280;9776;50.798;6.430;2022-08-19T09:56:27;100108.47;;;33.70;32.33
19286;BME280;9776;50.798;6.430;2022-08-19T09:58:54;100113.31;;;34.75;30.61
19286;BME280;9776;50.798;6.430;2022-08-19T10:01:24;100111.66;;;34.97;29.95
19286;BME280;9776;50.798;6.430;2022-08-19T10:03:52;100109.06;;;34.61;30.46
19286;BME280;9776;50.798;6.430;2022-08-19T10:06:20;100110.59;;;34.53;30.80
19286;BME280;9776;50.798;6.430;2022-08-19T10:08:47;100116.78;;;34.90;30.52
19286;BME280;9776;50.798;6.430;2022-08-19T10:11:15;100111.75;;;35.70;29.16
19286;BME280;9776;50.798;6.430;2022-08-19T10:13:43;100105.03;;;36.91;27.51
19286;BME280;9776;50.798;6.430;2022-08-19T10:16:12;100105.97;;;37.71;26.93
19286;BME280;9776;50.798;6.430;2022-08-19T10:18:42;100101.91;;;38.31;25.88
19286;BME280;9776;50.798;6.430;2022-08-19T10:21:12;100107.44;;;38.64;25.76
19286;BME280;9776;50.798;6.430;2022-08-19T10:23:41;100096.22;;;38.36;26.10
19286;BME280;9776;50.798;6.430;2022-08-19T10:26:11;100103.75;;;37.85;26.31
19286;BME280;9776;50.798;6.430;2022-08-19T10:28:38;100105.50;;;37.11;27.56
19286;BME280;9776;50.798;6.430;2022-08-19T10:31:06;100100.84;;;37.03;27.39
19286;BME280;9776;50.798;6.430;2022-08-19T10:33:33;100105.72;;;36.97;27.64
19286;BME280;9776;50.798;6.430;2022-08-19T10:36:03;100097.94;;;36.90;27.45
19286;BME280;9776;50.798;6.430;2022-08-19T10:38:30;100097.28;;;36.93;27.46
19286;BME280;9776;50.798;6.430;2022-08-19T10:40:57;100104.84;;;37.14;26.93
19286;BME280;9776;50.798;6.430;2022-08-19T10:43:23;100112.13;;;37.10;27.23
19286;BME280;9776;50.798;6.430;2022-08-19T10:45:54;100097.78;;;37.63;26.19
19286;BME280;9776;50.798;6.430;2022-08-19T10:48:24;100097.28;;;38.23;25.62
19286;BME280;9776;50.798;6.430;2022-08-19T10:50:51;100098.09;;;38.56;25.18
19286;BME280;9776;50.798;6.430;2022-08-19T10:53:36;100091.31;;;40.11;23.48
19286;BME280;9776;50.798;6.430;2022-08-19T10:56:03;100088.53;;;40.11;23.66
19286;BME280;9776;50.798;6.430;2022-08-19T10:58:47;100084.59;;;39.60;24.07
19286;BME280;9776;50.798;6.430;2022-08-19T11:01:14;100090.19;;;40.71;22.67
19286;BME280;9776;50.798;6.430;2022-08-19T11:03:41;100082.00;;;41.21;21.82
19286;BME280;9776;50.798;6.430;2022-08-19T11:06:08;100082.31;;;42.47;20.74
19286;BME280;9776;50.798;6.430;2022-08-19T11:08:37;100078.59;;;44.16;19.03
19286;BME280;9776;50.798;6.430;2022-08-19T11:11:05;100074.09;;;44.82;18.43
19286;BME280;9776;50.798;6.430;2022-08-19T11:13:36;100069.03;;;43.54;19.56
19286;BME280;9776;50.798;6.430;2022-08-19T11:16:05;100076.69;;;43.64;19.33
19286;BME280;9776;50.798;6.430;2022-08-19T11:18:34;100075.00;;;43.82;18.98
19286;BME280;9776;50.798;6.430;2022-08-19T11:21:06;100073.78;;;42.56;20.64
19286;BME280;9776;50.798;6.430;2022-08-19T11:23:33;100071.69;;;41.38;21.42
19286;BME280;9776;50.798;6.430;2022-08-19T11:26:02;100055.84;;;39.73;22.73
19286;BME280;9776;50.798;6.430;2022-08-19T11:28:29;100066.25;;;39.28;23.16
19286;BME280;9776;50.798;6.430;2022-08-19T11:30:55;100051.53;;;40.90;21.36
19286;BME280;9776;50.798;6.430;2022-08-19T11:33:22;100059.72;;;42.26;19.91
19286;BME280;9776;50.798;6.430;2022-08-19T11:35:51;100040.31;;;42.49;19.75
19286;BME280;9776;50.798;6.430;2022-08-19T11:38:18;100042.88;;;44.58;18.27
19286;BME280;9776;50.798;6.430;2022-08-19T11:40:45;100027.41;;;44.65;17.89
19286;BME280;9776;50.798;6.430;2022-08-19T11:43:13;100031.34;;;44.60;17.77
19286;BME280;9776;50.798;6.430;2022-08-19T11:45:39;100027.25;;;44.50;18.13
19286;BME280;9776;50.798;6.430;2022-08-19T11:48:06;100024.91;;;45.00;17.59
19286;BME280;9776;50.798;6.430;2022-08-19T11:50:33;100025.97;;;45.39;17.08
19286;BME280;9776;50.798;6.430;2022-08-19T11:53:00;100031.34;;;45.76;16.64
19286;BME280;9776;50.798;6.430;2022-08-19T11:55:26;100029.94;;;46.67;16.16
19286;BME280;9776;50.798;6.430;2022-08-19T11:57:53;100030.34;;;46.51;16.24
19286;BME280;9776;50.798;6.430;2022-08-19T12:00:21;100021.75;;;45.81;16.46
19286;BME280;9776;50.798;6.430;2022-08-19T12:02:48;100027.44;;;44.72;17.52
19286;BME280;9776;50.798;6.430;2022-08-19T12:05:14;100027.09;;;44.36;17.52
19286;BME280;9776;50.798;6.430;2022-08-19T12:07:41;100032.56;;;43.59;18.13
19286;BME280;9776;50.798;6.430;2022-08-19T12:10:09;100020.84;;;42.68;18.77
19286;BME280;9776;50.798;6.430;2022-08-19T12:12:36;100029.09;;;42.87;19.07
19286;BME280;9776;50.798;6.430;2022-08-19T12:15:08;100023.53;;;42.87;18.90
19286;BME280;9776;50.798;6.430;2022-08-19T12:17:38;100015.94;;;43.92;17.95
19286;BME280;9776;50.798;6.430;2022-08-19T12:20:06;100015.13;;;45.27;16.79
19286;BME280;9776;50.798;6.430;2022-08-19T12:22:34;100017.66;;;45.50;16.55
19286;BME280;9776;50.798;6.430;2022-08-19T12:25:01;100013.34;;;45.63;16.42
19286;BME280;9776;50.798;6.430;2022-08-19T12:27:28;100020.72;;;46.31;16.31
19286;BME280;9776;50.798;6.430;2022-08-19T12:29:54;100023.53;;;46.59;16.07
19286;BME280;9776;50.798;6.430;2022-08-19T12:32:21;100006.25;;;45.83;16.41
19286;BME280;9776;50.798;6.430;2022-08-19T12:34:49;99999.06;;;44.99;17.09
19286;BME280;9776;50.798;6.430;2022-08-19T12:37:16;99998.03;;;44.74;17.06
19286;BME280;9776;50.798;6.430;2022-08-19T12:39:43;100001.44;;;45.01;16.90
19286;BME280;9776;50.798;6.430;2022-08-19T12:42:11;100005.28;;;44.82;17.02
19286;BME280;9776;50.798;6.430;2022-08-19T12:44:41;99998.50;;;44.39;17.12
19286;BME280;9776;50.798;6.430;2022-08-19T12:47:10;100004.19;;;43.76;18.16
19286;BME280;9776;50.798;6.430;2022-08-19T12:49:37;99995.06;;;42.45;19.17
19286;BME280;9776;50.798;6.430;2022-08-19T12:52:07;99994.59;;;40.58;20.73
19286;BME280;9776;50.798;6.430;2022-08-19T12:54:34;100006.13;;;38.85;22.35
19286;BME280;9776;50.798;6.430;2022-08-19T12:57:05;100010.09;;;37.65;23.75
19286;BME280;9776;50.798;6.430;2022-08-19T12:59:33;99993.69;;;36.97;24.51
19286;BME280;9776;50.798;6.430;2022-08-19T13:02:00;99999.81;;;36.19;25.33
19286;BME280;9776;50.798;6.430;2022-08-19T13:04:26;99993.53;;;35.84;25.50
19286;BME280;9776;50.798;6.430;2022-08-19T13:06:53;99993.50;;;35.33;26.31
19286;BME280;9776;50.798;6.430;2022-08-19T13:09:21;99994.72;;;35.01;26.84
19286;BME280;9776;50.798;6.430;2022-08-19T13:11:48;100008.44;;;34.61;27.35